Time;durP1;ratioP1;P1;durP2;ratioP2;P2;SDS_P1;SDS_P2;PMS_P1;PMS_P2;Temp;Humidity;BMP_temperature;BMP_pressure;BME280_temperature;BME280_humidity;BME280_pressure;Samples;Min_cycle;Max_cycle;Signal;HPM_P1;HPM_P2
2022/06/10 20:08:32;;;;;;;12.68;6.63;;;;;;;15.93;57.25;98996.78;5127651;27;20119;-72
2022/06/10 20:10:59;;;;;;;14.80;6.70;;;;;;;15.92;58.07;98995.97;5107878;28;20622;-71
2022/06/10 20:13:26;;;;;;;14.35;6.78;;;;;;;15.92;58.46;99000.69;5125497;28;20114;-71
2022/06/10 20:16:01;;;;;;;16.27;6.28;;;;;;;15.95;58.93;98999.22;5126860;28;20031;-71
2022/06/10 20:18:30;;;;;;;12.90;5.78;;;;;;;15.97;59.20;98992.25;5127094;28;20035;-72
2022/06/10 20:20:57;;;;;;;;;;;;;;;16.01;58.99;98995.19;5128006;28;20099;-72
2022/06/10 20:23:25;;;;;;;13.98;6.20;;;;;;;16.03;59.09;98990.16;5127331;28;20022;-71
2022/06/10 20:25:52;;;;;;;11.65;5.88;;;;;;;16.08;59.66;98992.78;5127013;28;20035;-69
2022/06/10 20:28:20;;;;;;;13.57;6.05;;;;;;;16.11;60.25;98999.59;5126102;28;20114;-72
2022/06/10 20:30:47;;;;;;;13.55;5.80;;;;;;;16.15;60.44;98992.31;5126000;28;20038;-70
2022/06/10 20:33:20;;;;;;;14.30;6.05;;;;;;;16.18;60.50;98991.66;5125271;27;20032;-71
2022/06/10 20:35:48;;;;;;;12.30;5.80;;;;;;;16.20;60.67;98993.00;5125898;28;20023;-70
2022/06/10 20:38:16;;;;;;;12.18;5.78;;;;;;;16.21;60.95;98994.63;5123163;28;20038;-72
2022/06/10 20:40:43;;;;;;;9.88;6.05;;;;;;;16.23;60.99;98985.97;5125323;28;20028;-71
2022/06/10 20:43:09;;;;;;;9.48;5.40;;;;;;;16.25;60.64;98989.25;5125384;28;20749;-72
2022/06/10 20:45:40;;;;;;;9.75;5.10;;;;;;;16.26;61.04;98990.06;5126985;28;20035;-72
2022/06/10 20:48:15;;;;;;;7.25;4.80;;;;;;;16.27;61.06;98986.19;5126995;27;20035;-71
2022/06/10 20:50:41;;;;;;;7.30;4.57;;;;;;;16.28;60.84;98985.03;5126175;27;20030;-72
2022/06/10 20:53:09;;;;;;;5.57;4.22;;;;;;;16.27;60.92;98984.22;5123845;28;20038;-71
2022/06/10 20:55:38;;;;;;;8.68;4.30;;;;;;;16.27;60.83;98984.22;5124901;28;20498;-71
2022/06/10 20:58:16;;;;;;;8.15;4.22;;;;;;;16.25;60.98;98991.22;5106885;28;20031;-72
2022/06/10 21:00:43;;;;;;;8.10;4.30;;;;;;;16.24;61.30;98986.81;5108447;27;20023;-72
2022/06/10 21:03:32;;;;;;;8.23;4.30;;;;;;;16.25;61.31;99000.31;5096088;28;20079;-72
2022/06/10 21:08:49;;;;;;;6.82;4.25;;;;;;;16.21;61.43;98993.78;5099034;28;20247;-72
2022/06/10 21:11:15;;;;;;;6.38;4.15;;;;;;;16.18;61.54;98994.44;5099366;28;20395;-72
2022/06/10 21:13:40;;;;;;;7.50;3.92;;;;;;;16.17;61.13;98995.56;5099853;28;20034;-72
2022/06/10 21:16:20;;;;;;;7.45;3.90;;;;;;;16.15;61.68;99001.44;5098652;28;20024;-72
2022/06/10 21:18:46;;;;;;;;;;;;;;;16.15;61.47;99004.19;5102013;27;20038;-72
2022/06/10 21:21:21;;;;;;;10.98;4.32;;;;;;;16.11;61.59;98994.91;5076195;28;20012;-73
2022/06/10 21:23:49;;;;;;;8.27;4.60;;;;;;;16.09;61.53;98990.84;5079021;28;20016;-72
2022/06/10 21:26:18;;;;;;;9.98;4.38;;;;;;;16.06;61.98;98986.75;5068968;28;20035;-73
2022/06/10 21:28:44;;;;;;;5.75;4.30;;;;;;;16.03;61.93;98987.38;5087383;28;20115;-73
2022/06/10 21:31:17;;;;;;;6.50;4.22;;;;;;;16.00;62.02;98980.56;5066240;28;20034;-73
2022/06/10 21:33:54;;;;;;;6.18;3.53;;;;;;;15.97;61.74;98974.81;5086114;28;20028;-73
2022/06/10 21:36:35;;;;;;;5.15;3.92;;;;;;;15.95;61.62;98982.63;5084970;28;20379;-72
2022/06/10 21:39:05;;;;;;;5.72;4.22;;;;;;;15.92;62.04;98981.31;5084170;27;20028;-72
2022/06/10 21:41:35;;;;;;;6.60;3.80;;;;;;;15.92;62.35;98981.31;5075393;28;20032;-72
2022/06/10 21:44:19;;;;;;;7.13;4.47;;;;;;;15.88;62.54;98980.34;5077704;28;20724;-72
2022/06/10 21:46:51;;;;;;;6.75;3.83;;;;;;;15.84;62.14;98980.13;5068050;28;20035;-72
2022/06/10 21:49:24;;;;;;;4.20;3.80;;;;;;;15.83;62.50;98981.25;5085710;28;20115;-72
2022/06/10 21:51:50;;;;;;;5.78;3.95;;;;;;;15.81;62.82;98975.22;5085454;28;20035;-72
2022/06/10 21:54:19;;;;;;;6.15;4.07;;;;;;;15.76;62.46;98976.19;5084993;28;20131;-73
2022/06/10 21:56:45;;;;;;;5.95;4.30;;;;;;;15.75;62.71;98982.03;5085044;28;20040;-73
2022/06/10 21:59:24;;;;;;;6.88;3.88;;;;;;;15.73;62.51;98978.78;5084327;28;20036;-73
2022/06/10 22:01:58;;;;;;;10.95;4.53;;;;;;;15.69;62.66;98975.81;5076827;28;20046;-73
2022/06/10 22:04:28;;;;;;;7.15;4.30;;;;;;;15.67;63.21;98980.88;5077094;28;20030;-73
2022/06/10 22:07:02;;;;;;;10.43;4.50;;;;;;;15.61;63.24;98963.56;5081219;28;20043;-73
2022/06/10 22:09:33;;;;;;;6.35;4.50;;;;;;;15.60;63.36;98967.47;5066701;28;20926;-73
2022/06/10 22:12:03;;;;;;;8.60;4.15;;;;;;;15.58;63.46;98972.50;5100018;27;20040;-72
2022/06/10 22:14:28;;;;;;;6.13;4.40;;;;;;;15.55;63.37;98962.06;5084443;28;20031;-72
2022/06/10 22:17:00;;;;;;;10.10;5.30;;;;;;;15.53;63.61;98961.56;5087595;28;20040;-72
2022/06/10 22:19:27;;;;;;;11.20;5.00;;;;;;;15.49;63.75;98960.59;5084607;28;20115;-73
2022/06/10 22:21:59;;;;;;;11.10;5.47;;;;;;;15.47;63.58;98966.44;5081262;28;20808;-73
2022/06/10 22:24:28;;;;;;;7.47;5.43;;;;;;;15.42;63.65;98961.03;5075260;28;20089;-72
2022/06/10 22:26:55;;;;;;;7.15;5.15;;;;;;;15.39;63.87;98960.88;5068995;28;20072;-72
2022/06/10 22:29:22;;;;;;;8.75;5.38;;;;;;;15.36;64.09;98967.03;5105993;28;20024;-72
2022/06/10 22:31:50;;;;;;;10.65;5.47;;;;;;;15.32;64.32;98964.06;5108593;28;20092;-72
2022/06/10 22:34:23;;;;;;;9.75;5.53;;;;;;;15.28;63.88;98972.19;5108716;28;20057;-72
2022/06/10 22:36:49;;;;;;;8.55;5.68;;;;;;;15.25;64.17;98969.25;5109220;28;20016;-72
2022/06/10 22:39:16;;;;;;;9.38;5.60;;;;;;;15.22;64.37;98965.16;5109367;28;20024;-73
2022/06/10 22:41:41;;;;;;;8.65;5.38;;;;;;;15.17;64.48;98968.84;5090254;28;20023;-73
2022/06/10 22:44:08;;;;;;;8.43;5.30;;;;;;;15.16;64.46;98977.44;5108695;28;20096;-73
2022/06/10 22:46:38;;;;;;;9.65;5.72;;;;;;;15.13;64.53;98972.53;5108741;28;20028;-73
2022/06/10 22:49:11;;;;;;;9.15;5.53;;;;;;;15.11;64.53;98975.63;5109139;28;20027;-73
2022/06/10 22:51:41;;;;;;;9.43;5.40;;;;;;;15.09;64.70;98977.06;5109710;28;20027;-73
2022/06/10 22:54:07;;;;;;;;;;;;;;;15.06;64.44;98977.72;5110043;28;20026;-73
2022/06/10 22:56:33;;;;;;;12.05;5.72;;;;;;;15.02;64.79;98977.50;5109824;28;19916;-73
2022/06/10 22:58:59;;;;;;;10.13;6.03;;;;;;;14.97;65.01;98977.63;5107287;28;20030;-74
2022/06/10 23:01:26;;;;;;;10.27;5.90;;;;;;;14.91;65.06;98976.94;5109016;28;20485;-73
2022/06/10 23:03:56;;;;;;;8.50;5.80;;;;;;;14.87;65.20;98984.22;5109555;28;20036;-74
2022/06/10 23:06:28;;;;;;;9.73;5.90;;;;;;;14.83;65.23;98989.56;5108138;27;20055;-73
2022/06/10 23:11:50;;;;;;;11.32;6.30;;;;;;;14.73;65.41;98987.81;5108484;28;20031;-74
2022/06/10 23:14:21;;;;;;;9.85;6.88;;;;;;;14.70;65.58;98991.22;5108820;28;20019;-74
2022/06/10 23:16:51;;;;;;;9.35;6.65;;;;;;;14.69;65.34;98989.56;5107893;28;20030;-74
2022/06/10 23:19:21;;;;;;;13.88;6.90;;;;;;;14.67;65.78;98996.53;5109662;28;20112;-74
2022/06/10 23:21:52;;;;;;;10.98;6.95;;;;;;;14.62;65.90;98993.88;5108895;28;20090;-73
2022/06/10 23:24:20;;;;;;;10.38;6.63;;;;;;;14.60;66.03;98996.94;5091505;28;20023;-74
2022/06/10 23:26:46;;;;;;;8.95;6.80;;;;;;;14.55;65.90;98997.84;5108849;28;20110;-74
2022/06/10 23:29:11;;;;;;;10.60;6.97;;;;;;;14.53;66.15;99000.13;5109756;28;20444;-74
2022/06/10 23:31:43;;;;;;;9.13;6.78;;;;;;;14.49;66.32;99001.84;5108720;28;20027;-74
2022/06/10 23:34:29;;;;;;;12.50;7.13;;;;;;;14.48;66.26;99002.19;5106724;28;20028;-74
2022/06/10 23:36:54;;;;;;;9.23;6.75;;;;;;;14.44;66.43;99007.50;5108309;28;20110;-73
2022/06/10 23:39:21;;;;;;;10.30;6.32;;;;;;;14.43;66.62;99008.63;5108890;28;20181;-73
2022/06/10 23:42:02;;;;;;;11.27;6.95;;;;;;;14.38;66.37;99011.50;5109584;27;20059;-72
2022/06/10 23:44:39;;;;;;;10.25;7.20;;;;;;;14.33;66.57;99006.09;5108830;28;20110;-73
2022/06/10 23:52:38;;;;;;;11.68;7.25;;;;;;;14.22;66.85;99002.72;5108416;28;20053;-73
2022/06/10 23:57:51;;;;;;;14.57;7.70;;;;;;;14.14;66.94;99007.81;5106361;28;20046;-74
